Time;durP1;ratioP1;P1;durP2;ratioP2;P2;SDS_P1;SDS_P2;PMS_P1;PMS_P2;Temp;Humidity;BMP_temperature;BMP_pressure;BME280_temperature;BME280_humidity;BME280_pressure;Samples;Min_cycle;Max_cycle;Signal;HPM_P1;HPM_P2
2021/09/14 00:01:56;;;;;;;5.90;5.43;;;23.30;40.40;;;;;;4957707;28;20215;-56
2021/09/14 00:04:22;;;;;;;5.83;5.43;;;23.30;40.50;;;;;;4957879;28;20211;-52
2021/09/14 00:06:47;;;;;;;5.60;5.20;;;23.30;40.50;;;;;;4958018;28;20547;-53
2021/09/14 00:09:13;;;;;;;5.87;5.40;;;23.30;40.50;;;;;;4957594;28;20180;-52
2021/09/14 00:11:41;;;;;;;5.30;4.90;;;23.30;40.50;;;;;;4957665;28;20246;-52
2021/09/14 00:14:07;;;;;;;6.83;5.73;;;23.30;40.50;;;;;;4957653;28;20175;-52
2021/09/14 00:16:33;;;;;;;5.80;5.40;;;23.30;40.50;;;;;;4957581;28;20419;-54
2021/09/14 00:18:58;;;;;;;6.13;5.10;;;23.30;40.50;;;;;;4957353;28;20539;-52
2021/09/14 00:21:24;;;;;;;6.30;5.80;;;23.30;40.50;;;;;;4957380;28;20556;-54
2021/09/14 00:23:50;;;;;;;6.03;5.60;;;23.30;40.50;;;;;;4957357;28;20203;-53
2021/09/14 00:26:16;;;;;;;6.00;5.60;;;23.30;40.50;;;;;;4957587;28;20478;-52
2021/09/14 00:28:41;;;;;;;6.87;6.27;;;23.30;40.50;;;;;;4957319;28;20208;-56
2021/09/14 00:31:07;;;;;;;6.27;5.67;;;23.30;41.20;;;;;;4957370;28;20240;-52
2021/09/14 00:33:32;;;;;;;5.63;5.23;;;23.30;40.50;;;;;;4957289;28;20167;-52
2021/09/14 00:35:58;;;;;;;5.73;5.23;;;23.30;40.50;;;;;;4957242;28;20179;-55
2021/09/14 00:38:23;;;;;;;6.53;6.03;;;23.20;40.40;;;;;;4957002;28;20179;-53
2021/09/14 00:40:49;;;;;;;5.93;5.53;;;23.20;40.40;;;;;;4957063;28;20710;-51
2021/09/14 00:43:19;;;;;;;6.57;6.10;;;23.20;40.50;;;;;;4957040;28;20548;-54
2021/09/14 00:45:45;;;;;;;6.00;5.50;;;23.20;40.40;;;;;;4957155;28;20614;-53
2021/09/14 00:48:10;;;;;;;6.03;5.60;;;23.20;40.40;;;;;;4957014;28;20505;-51
2021/09/14 00:50:36;;;;;;;5.53;5.13;;;23.20;40.40;;;;;;4956764;28;20171;-52
2021/09/14 00:53:02;;;;;;;6.07;5.57;;;23.20;40.40;;;;;;4956933;28;20671;-52
2021/09/14 00:55:28;;;;;;;6.83;6.33;;;23.20;40.40;;;;;;4957021;28;20178;-55
2021/09/14 00:57:53;;;;;;;5.90;5.50;;;23.20;40.40;;;;;;4956792;28;20415;-53
2021/09/14 01:00:20;;;;;;;6.93;6.23;;;23.20;40.40;;;;;;4956574;28;20589;-55
2021/09/14 01:02:47;;;;;;;6.40;5.90;;;23.20;40.50;;;;;;4956715;28;20262;-52
2021/09/14 01:05:12;;;;;;;6.30;5.90;;;23.20;40.40;;;;;;4956850;28;20411;-50
2021/09/14 01:07:39;;;;;;;5.87;5.43;;;23.20;40.40;;;;;;4956566;28;20965;-52
2021/09/14 01:10:05;;;;;;;6.23;5.73;;;23.20;40.40;;;;;;4955655;28;20625;-52
2021/09/14 01:12:30;;;;;;;6.10;5.70;;;23.20;40.30;;;;;;4956375;28;20467;-51
2021/09/14 01:14:57;;;;;;;5.33;5.00;;;23.20;40.30;;;;;;4956587;28;20441;-50
2021/09/14 01:20:44;;;;;;;5.63;5.20;;;23.20;40.30;;;;;;4956428;28;20462;-54
2021/09/14 01:23:10;;;;;;;5.60;5.30;;;23.20;40.30;;;;;;4956321;28;20928;-52
2021/09/14 01:25:36;;;;;;;6.97;6.37;;;23.20;40.40;;;;;;4956405;28;20171;-53
2021/09/14 01:28:05;;;;;;;6.27;5.67;;;23.20;40.30;;;;;;4956325;28;20186;-52
2021/09/14 01:30:32;;;;;;;5.47;5.17;;;23.10;40.20;;;;;;4955973;28;20641;-53
2021/09/14 01:32:58;;;;;;;5.70;5.30;;;23.10;40.20;;;;;;4956115;28;20431;-50
2021/09/14 01:35:29;;;;;;;6.13;5.63;;;23.10;40.20;;;;;;4956431;28;20426;-53
2021/09/14 01:37:55;;;;;;;6.17;5.77;;;23.10;40.20;;;;;;4956114;28;20199;-53
2021/09/14 01:40:21;;;;;;;6.17;5.60;;;23.10;40.20;;;;;;4955924;28;20431;-51
2021/09/14 01:42:47;;;;;;;6.50;6.00;;;23.10;40.20;;;;;;4955835;28;20536;-51
2021/09/14 01:45:13;;;;;;;6.23;5.83;;;23.10;40.10;;;;;;4955997;28;20172;-50
2021/09/14 01:47:40;;;;;;;5.50;5.10;;;23.10;40.20;;;;;;4955915;28;20661;-53
2021/09/14 01:50:07;;;;;;;6.40;5.87;;;23.10;40.10;;;;;;4955767;28;20474;-52
2021/09/14 01:52:33;;;;;;;5.27;4.77;;;23.10;40.10;;;;;;4955685;28;20490;-51
2021/09/14 01:55:08;;;;;;;5.50;5.10;;;23.10;40.20;;;;;;4955849;28;20494;-50
2021/09/14 01:57:36;;;;;;;5.80;5.00;;;23.10;40.10;;;;;;4955602;28;20451;-50
2021/09/14 02:00:14;;;;;;;6.47;5.97;;;23.10;40.10;;;;;;4955667;28;20506;-53
2021/09/14 02:02:53;;;;;;;6.00;5.60;;;23.10;40.10;;;;;;4955746;28;20462;-51
2021/09/14 02:05:35;;;;;;;5.90;5.50;;;23.10;40.10;;;;;;4955787;28;20415;-50
2021/09/14 02:08:16;;;;;;;5.77;5.27;;;23.10;40.00;;;;;;4955495;28;20414;-53
2021/09/14 02:38:35;;;;;;;4.93;4.63;;;23.00;39.80;;;;;;4955197;28;20427;-49
2021/09/14 03:00:10;;;;;;;5.83;5.53;;;23.00;39.90;;;;;;4954654;29;20908;-50
2021/09/14 03:02:35;;;;;;;6.30;5.20;;;23.00;39.90;;;;;;4954427;28;20478;-52
2021/09/14 03:05:03;;;;;;;5.73;5.33;;;23.00;39.90;;;;;;4954565;28;20419;-52
2021/09/14 03:07:29;;;;;;;6.37;5.93;;;23.00;39.80;;;;;;4954688;28;20175;-52
2021/09/14 03:09:54;;;;;;;6.07;5.70;;;23.00;39.90;;;;;;4954530;28;20408;-56
2021/09/14 03:12:20;;;;;;;6.37;5.90;;;23.00;39.90;;;;;;4954441;28;20203;-54
2021/09/14 03:14:47;;;;;;;5.60;5.30;;;23.00;39.90;;;;;;4954262;28;20179;-53
2021/09/14 03:17:12;;;;;;;5.40;5.10;;;23.00;39.90;;;;;;4954645;28;20186;-53
2021/09/14 03:19:38;;;;;;;5.13;4.83;;;23.00;39.80;;;;;;4954073;28;20416;-55
2021/09/14 03:22:03;;;;;;;5.70;5.20;;;23.00;39.80;;;;;;4954199;28;20195;-51
2021/09/14 03:24:29;;;;;;;6.30;5.80;;;23.00;39.80;;;;;;4954091;28;20717;-53
2021/09/14 03:26:57;;;;;;;6.50;6.00;;;23.00;39.80;;;;;;4954300;28;20183;-52
2021/09/14 03:29:23;;;;;;;6.40;5.90;;;23.00;39.80;;;;;;4953112;28;20263;-55
2021/09/14 03:31:48;;;;;;;6.20;5.80;;;23.00;39.80;;;;;;4968591;28;20531;-49
2021/09/14 03:34:14;;;;;;;6.27;5.77;;;23.00;39.70;;;;;;4953950;28;20423;-52
2021/09/14 03:36:40;;;;;;;5.00;4.70;;;23.00;39.80;;;;;;4954155;28;20175;-50
2021/09/14 03:39:05;;;;;;;5.27;4.97;;;23.00;39.80;;;;;;4953817;28;20183;-54
2021/09/14 03:41:30;;;;;;;6.37;5.87;;;23.00;39.80;;;;;;4953481;28;20703;-53
2021/09/14 03:43:56;;;;;;;6.97;6.37;;;23.00;39.80;;;;;;4953584;29;20253;-54
2021/09/14 03:46:21;;;;;;;7.20;5.97;;;23.00;39.80;;;;;;4953858;28;20241;-54
2021/09/14 03:48:47;;;;;;;6.40;5.90;;;23.00;39.90;;;;;;4953511;28;20175;-51
2021/09/14 03:51:12;;;;;;;6.03;5.53;;;23.00;39.80;;;;;;4953836;28;20199;-51
2021/09/14 03:53:38;;;;;;;5.10;4.80;;;23.00;39.80;;;;;;4953883;28;20594;-51
2021/09/14 03:56:04;;;;;;;6.00;5.60;;;23.00;39.80;;;;;;4953892;28;20179;-52
2021/09/14 03:58:29;;;;;;;6.20;5.70;;;23.00;39.80;;;;;;4953511;28;20199;-52
2021/09/14 04:00:55;;;;;;;5.87;5.37;;;23.00;39.80;;;;;;4953730;28;20638;-56
2021/09/14 04:03:26;;;;;;;6.27;5.87;;;23.00;39.90;;;;;;4953973;28;20211;-52
2021/09/14 04:06:41;;;;;;;6.57;5.80;;;23.00;39.80;;;;;;4953903;28;20206;-54
2021/09/14 04:08:51;;;;;;;6.27;5.67;;;23.00;39.90;;;;;;4949513;28;20459;-53
2021/09/14 04:11:17;;;;;;;6.17;5.70;;;23.00;39.80;;;;;;4953674;28;20423;-51
2021/09/14 04:13:43;;;;;;;5.57;5.17;;;23.00;39.90;;;;;;4953555;28;20451;-55
2021/09/14 04:16:08;;;;;;;6.27;5.87;;;23.00;40.00;;;;;;4953761;28;20415;-56
2021/09/14 04:18:34;;;;;;;5.90;5.40;;;22.90;39.90;;;;;;4953502;28;20179;-55
2021/09/14 04:20:59;;;;;;;6.20;5.70;;;23.00;40.00;;;;;;4953491;28;20219;-55
2021/09/14 04:23:25;;;;;;;6.27;5.87;;;22.90;40.00;;;;;;4952229;28;20579;-55
2021/09/14 04:25:50;;;;;;;6.50;5.90;;;23.00;40.10;;;;;;4953008;29;20176;-51
2021/09/14 04:28:16;;;;;;;7.23;6.53;;;22.90;40.20;;;;;;4947147;29;20183;-59
2021/09/14 04:30:42;;;;;;;6.00;5.50;;;22.90;40.30;;;;;;4951329;28;20179;-60
2021/09/14 04:33:08;;;;;;;6.20;5.70;;;22.90;40.30;;;;;;4951896;28;20514;-59
2021/09/14 04:35:35;;;;;;;5.80;5.40;;;22.90;40.20;;;;;;4951629;28;20179;-59
2021/09/14 04:38:02;;;;;;;5.40;5.00;;;22.90;40.20;;;;;;4951794;28;20882;-58
2021/09/14 04:40:28;;;;;;;6.10;5.70;;;23.00;40.20;;;;;;4951385;28;20477;-60
2021/09/14 04:42:53;;;;;;;6.13;5.73;;;23.00;40.20;;;;;;4951279;28;20973;-59
2021/09/14 04:45:19;;;;;;;5.60;5.13;;;23.00;40.10;;;;;;4953323;28;20175;-59
2021/09/14 04:47:44;;;;;;;5.73;5.33;;;23.00;40.10;;;;;;4954710;28;20185;-57
2021/09/14 04:50:10;;;;;;;5.90;5.50;;;23.00;40.20;;;;;;4954323;29;20265;-60
2021/09/14 04:52:36;;;;;;;6.40;5.80;;;23.00;40.20;;;;;;4954695;28;20264;-59
2021/09/14 04:55:01;;;;;;;6.07;5.60;;;23.00;40.20;;;;;;4954960;28;20737;-58
2021/09/14 04:57:27;;;;;;;5.43;5.03;;;23.00;40.20;;;;;;4954641;29;20186;-58
2021/09/14 04:59:52;;;;;;;6.60;6.10;;;23.00;40.20;;;;;;4954795;28;20175;-58
2021/09/14 05:02:18;;;;;;;5.90;5.40;;;23.00;40.30;;;;;;4954767;28;20194;-59
2021/09/14 05:04:43;;;;;;;6.37;5.97;;;23.00;40.40;;;;;;4954488;28;20242;-57
2021/09/14 05:07:09;;;;;;;6.07;5.47;;;23.00;40.50;;;;;;4954804;28;20171;-59
2021/09/14 05:09:34;;;;;;;7.03;6.30;;;22.90;40.40;;;;;;4955995;29;20658;-58
2021/09/14 05:12:00;;;;;;;6.10;5.70;;;23.00;40.50;;;;;;4956423;28;20670;-59
2021/09/14 05:14:25;;;;;;;6.67;6.07;;;22.90;40.30;;;;;;4948359;29;20183;-58
2021/09/14 05:16:51;;;;;;;6.40;5.80;;;22.90;40.30;;;;;;4956437;29;20249;-58
2021/09/14 05:19:23;;;;;;;7.57;6.20;;;22.90;40.30;;;;;;4955472;29;20187;-59
2021/09/14 05:21:50;;;;;;;7.10;6.50;;;22.90;40.30;;;;;;4955997;28;20693;-59
2021/09/14 05:24:16;;;;;;;6.50;6.00;;;22.90;40.30;;;;;;4955964;29;20969;-61
2021/09/14 05:26:41;;;;;;;7.40;6.80;;;22.90;40.30;;;;;;4956383;28;20422;-59
2021/09/14 05:29:07;;;;;;;7.47;6.87;;;22.90;40.20;;;;;;4955758;28;20179;-59
2021/09/14 05:31:34;;;;;;;6.70;6.10;;;22.90;40.20;;;;;;4955952;28;20210;-59
2021/09/14 05:34:01;;;;;;;6.60;6.00;;;22.90;40.20;;;;;;4956003;28;20306;-58
2021/09/14 05:36:26;;;;;;;6.70;6.20;;;22.90;40.20;;;;;;4947647;29;20422;-61
2021/09/14 05:38:52;;;;;;;6.83;6.13;;;22.90;40.30;;;;;;4954392;28;20438;-59
2021/09/14 05:41:17;;;;;;;6.47;6.07;;;22.90;40.50;;;;;;4954890;28;20666;-58
2021/09/14 05:43:43;;;;;;;7.20;6.53;;;22.90;40.40;;;;;;4955373;28;20207;-59
2021/09/14 05:46:08;;;;;;;6.50;5.90;;;22.90;40.40;;;;;;4955642;28;20178;-60
2021/09/14 05:48:34;;;;;;;8.17;6.70;;;22.90;40.40;;;;;;4955698;28;20182;-61
2021/09/14 05:51:00;;;;;;;8.03;6.80;;;22.90;40.60;;;;;;4955475;28;20192;-60
2021/09/14 05:53:25;;;;;;;6.93;6.30;;;22.90;40.70;;;;;;4955980;28;20186;-61
2021/09/14 05:55:51;;;;;;;7.50;6.77;;;22.90;40.70;;;;;;4955332;28;20183;-60
2021/09/14 05:58:16;;;;;;;6.60;6.10;;;22.90;40.70;;;;;;4955466;28;20484;-61
2021/09/14 06:00:42;;;;;;;8.57;5.90;;;22.90;40.70;;;;;;4955088;28;20238;-59
2021/09/14 06:03:08;;;;;;;6.40;5.90;;;22.90;40.70;;;;;;4955587;28;20207;-59
2021/09/14 06:05:33;;;;;;;7.43;6.93;;;22.90;40.80;;;;;;4955301;28;20274;-59
2021/09/14 06:07:59;;;;;;;6.30;5.70;;;22.90;40.80;;;;;;4955293;28;20180;-60
2021/09/14 06:10:24;;;;;;;8.30;6.53;;;22.90;40.80;;;;;;4953950;28;20230;-59
2021/09/14 06:12:50;;;;;;;8.53;6.87;;;22.90;40.70;;;;;;4952700;29;20662;-61
2021/09/14 06:15:15;;;;;;;8.40;7.67;;;22.90;40.80;;;;;;4955215;29;20257;-61
2021/09/14 06:17:42;;;;;;;8.00;7.27;;;22.90;40.60;;;;;;4948847;29;20186;-63
2021/09/14 06:20:08;;;;;;;9.03;8.33;;;22.90;40.40;;;;;;4951365;28;20182;-60
2021/09/14 06:22:34;;;;;;;10.87;7.40;;;22.90;40.30;;;;;;4952685;28;20431;-61
2021/09/14 06:24:59;;;;;;;8.17;7.47;;;22.90;40.20;;;;;;4953336;29;20430;-60
2021/09/14 06:27:25;;;;;;;9.17;8.07;;;22.90;40.20;;;;;;4952638;29;20171;-61
2021/09/14 06:29:50;;;;;;;8.87;8.07;;;22.90;40.20;;;;;;4952917;28;20175;-60
2021/09/14 06:32:16;;;;;;;8.20;7.60;;;22.90;40.20;;;;;;4952880;28;20187;-60
2021/09/14 06:34:42;;;;;;;8.33;7.63;;;22.90;40.20;;;;;;4952543;28;20183;-59
2021/09/14 06:37:08;;;;;;;8.47;7.67;;;22.90;40.10;;;;;;4952920;28;20532;-59
2021/09/14 06:39:34;;;;;;;11.07;8.10;;;22.90;40.10;;;;;;4952310;28;20183;-59
2021/09/14 06:42:00;;;;;;;8.97;8.10;;;22.90;39.90;;;;;;4952430;28;20483;-58
2021/09/14 06:44:25;;;;;;;7.73;7.13;;;22.90;39.80;;;;;;4952411;28;20513;-59
2021/09/14 06:46:51;;;;;;;8.70;7.90;;;22.90;39.80;;;;;;4954450;29;20230;-57
2021/09/14 06:49:17;;;;;;;8.00;7.27;;;22.90;39.80;;;;;;4954113;28;20176;-59
2021/09/14 06:51:43;;;;;;;8.60;7.83;;;22.90;39.70;;;;;;4954639;28;20195;-61
2021/09/14 06:54:09;;;;;;;8.47;7.87;;;22.90;39.70;;;;;;4954558;28;20415;-61
2021/09/14 06:56:35;;;;;;;7.70;7.10;;;22.90;39.70;;;;;;4954492;28;20833;-58
2021/09/14 06:59:00;;;;;;;9.00;8.10;;;22.90;39.70;;;;;;4953509;28;20222;-60
2021/09/14 07:01:26;;;;;;;7.60;7.00;;;22.90;39.70;;;;;;4953945;28;20226;-59
2021/09/14 07:03:53;;;;;;;8.40;7.57;;;22.90;39.70;;;;;;4954036;29;20204;-61
2021/09/14 07:06:18;;;;;;;8.40;7.27;;;22.90;39.70;;;;;;4953589;28;20415;-59
2021/09/14 07:08:46;;;;;;;8.13;7.53;;;22.90;39.80;;;;;;4953818;28;20439;-60
2021/09/14 07:11:12;;;;;;;8.40;7.60;;;22.90;39.80;;;;;;4954077;28;20439;-58
2021/09/14 07:13:37;;;;;;;8.20;7.50;;;22.90;39.80;;;;;;4954240;28;20423;-59
2021/09/14 07:16:03;;;;;;;8.00;7.17;;;22.90;39.90;;;;;;4953969;28;20211;-56
2021/09/14 07:18:29;;;;;;;9.07;8.10;;;22.90;39.90;;;;;;4953572;28;20549;-60
2021/09/14 07:20:54;;;;;;;13.90;8.53;;;22.90;39.90;;;;;;4954245;28;20250;-57
2021/09/14 07:23:21;;;;;;;10.80;8.20;;;22.90;39.90;;;;;;4954021;28;20573;-58
2021/09/14 07:25:46;;;;;;;8.37;7.67;;;22.90;39.80;;;;;;4954221;28;20179;-59
2021/09/14 07:28:12;;;;;;;9.20;8.40;;;22.90;39.90;;;;;;4953847;28;20422;-59
2021/09/14 07:30:38;;;;;;;7.90;7.23;;;22.90;39.90;;;;;;4952507;28;20278;-61
2021/09/14 07:33:04;;;;;;;8.90;8.10;;;22.90;40.00;;;;;;4953572;29;20522;-60
2021/09/14 07:35:30;;;;;;;11.67;8.03;;;22.90;40.00;;;;;;4953561;28;20426;-59
2021/09/14 07:37:59;;;;;;;8.67;6.90;;;23.00;40.10;;;;;;4949283;28;20511;-61
2021/09/14 07:40:26;;;;;;;9.83;8.23;;;22.90;40.20;;;;;;4937887;29;20422;-62
2021/09/14 07:42:53;;;;;;;8.30;7.23;;;22.90;40.20;;;;;;4951870;28;20525;-62
2021/09/14 07:45:19;;;;;;;7.27;6.67;;;22.90;40.20;;;;;;4951940;29;20403;-63
2021/09/14 07:47:44;;;;;;;9.17;7.43;;;22.90;40.20;;;;;;4951622;28;20758;-60
2021/09/14 07:50:10;;;;;;;8.27;7.50;;;22.90;40.20;;;;;;4951764;29;20222;-58
2021/09/14 07:52:35;;;;;;;7.80;7.10;;;22.90;40.20;;;;;;4952115;28;20210;-60
2021/09/14 07:55:01;;;;;;;7.40;6.70;;;22.90;40.20;;;;;;4951724;29;20206;-61
2021/09/14 07:57:28;;;;;;;9.17;7.40;;;22.90;40.20;;;;;;4951970;28;20180;-62
2021/09/14 07:59:54;;;;;;;7.33;6.83;;;22.90;40.30;;;;;;4951697;28;20411;-62
2021/09/14 08:02:19;;;;;;;7.33;6.63;;;22.90;40.30;;;;;;4951375;28;20438;-62
2021/09/14 08:04:45;;;;;;;9.03;7.10;;;23.00;40.30;;;;;;4951826;29;20207;-62
2021/09/14 08:07:10;;;;;;;7.60;6.90;;;23.00;40.30;;;;;;4952163;29;20179;-61
2021/09/14 08:09:36;;;;;;;8.13;7.10;;;23.00;40.40;;;;;;4951491;28;20171;-56
2021/09/14 08:12:01;;;;;;;8.87;7.60;;;22.90;40.30;;;;;;4951649;28;20199;-56
2021/09/14 08:14:27;;;;;;;7.40;6.90;;;23.00;40.40;;;;;;4951795;28;20845;-58
2021/09/14 08:16:52;;;;;;;7.27;6.57;;;23.00;40.40;;;;;;4951183;29;20530;-59
2021/09/14 08:19:18;;;;;;;7.03;6.30;;;23.00;40.40;;;;;;4954405;28;20183;-60
2021/09/14 08:21:43;;;;;;;7.43;6.73;;;23.00;40.40;;;;;;4955293;28;20277;-58
2021/09/14 08:24:11;;;;;;;7.13;6.63;;;23.00;40.40;;;;;;4954931;29;20672;-60
2021/09/14 08:26:37;;;;;;;7.50;6.90;;;23.00;40.40;;;;;;4955603;29;20262;-59
2021/09/14 08:29:03;;;;;;;8.53;7.30;;;23.00;40.50;;;;;;4955183;29;20421;-60
2021/09/14 08:31:29;;;;;;;7.50;6.90;;;23.00;40.40;;;;;;4954738;28;20839;-61
2021/09/14 08:33:55;;;;;;;6.70;6.20;;;23.00;40.30;;;;;;4955095;29;20434;-61
2021/09/14 08:36:20;;;;;;;7.77;7.10;;;23.00;40.40;;;;;;4955107;29;20437;-61
2021/09/14 08:38:46;;;;;;;7.23;6.73;;;23.00;40.30;;;;;;4956861;29;20179;-61
2021/09/14 08:41:14;;;;;;;6.90;6.40;;;23.00;40.40;;;;;;4956892;28;20199;-60
2021/09/14 08:43:42;;;;;;;7.03;6.50;;;23.00;40.40;;;;;;4957014;28;20207;-61
2021/09/14 08:46:09;;;;;;;8.30;6.77;;;23.00;40.30;;;;;;4957134;28;20411;-61
2021/09/14 08:48:38;;;;;;;8.40;7.70;;;23.00;40.20;;;;;;4956229;28;20431;-60
2021/09/14 08:51:05;;;;;;;8.00;6.57;;;23.00;40.30;;;;;;4956885;29;20458;-59
2021/09/14 08:53:34;;;;;;;6.70;6.10;;;23.00;40.20;;;;;;4956953;29;20774;-60
2021/09/14 08:56:04;;;;;;;7.13;6.60;;;23.00;40.20;;;;;;4956746;28;20411;-60
2021/09/14 08:58:30;;;;;;;7.50;7.00;;;23.00;40.20;;;;;;4956269;28;20423;-61
2021/09/14 09:00:55;;;;;;;7.13;6.43;;;23.00;40.20;;;;;;4956727;28;21020;-61
2021/09/14 09:03:28;;;;;;;5.40;5.10;;;23.10;40.30;;;;;;4956337;28;20589;-62
2021/09/14 09:05:54;;;;;;;6.70;6.10;;;23.10;40.20;;;;;;4956946;28;20183;-60
2021/09/14 09:08:28;;;;;;;7.10;6.50;;;23.10;40.20;;;;;;4956332;28;20411;-60
2021/09/14 09:11:11;;;;;;;6.70;6.20;;;23.10;40.20;;;;;;4956472;28;20864;-60
2021/09/14 09:13:45;;;;;;;6.13;5.73;;;23.10;40.30;;;;;;4956405;28;20422;-61
2021/09/14 09:16:22;;;;;;;7.40;6.80;;;23.10;40.20;;;;;;4956595;29;20512;-61
2021/09/14 09:19:01;;;;;;;5.80;5.50;;;23.10;40.10;;;;;;4956144;28;20417;-60
2021/09/14 09:21:28;;;;;;;5.83;5.43;;;23.10;40.20;;;;;;4946633;28;20513;-61
2021/09/14 09:23:56;;;;;;;6.77;6.27;;;23.10;40.30;;;;;;4954619;29;20481;-61
2021/09/14 09:26:36;;;;;;;6.90;6.20;;;23.20;40.40;;;;;;4954394;29;20462;-60
2021/09/14 09:29:04;;;;;;;6.37;5.87;;;23.20;40.30;;;;;;4953728;29;20549;-61
2021/09/14 09:31:31;;;;;;;6.23;5.73;;;23.20;40.30;;;;;;4953406;28;20430;-61
2021/09/14 09:34:01;;;;;;;6.20;5.80;;;23.20;40.20;;;;;;4954022;29;20814;-62
2021/09/14 09:36:30;;;;;;;6.90;6.50;;;23.20;40.30;;;;;;4968488;28;20411;-61
2021/09/14 09:38:59;;;;;;;6.70;6.20;;;23.30;40.40;;;;;;4953859;29;20422;-59
2021/09/14 09:41:25;;;;;;;7.30;6.80;;;23.30;40.40;;;;;;4953941;28;20482;-61
2021/09/14 09:43:50;;;;;;;6.47;5.97;;;23.30;40.40;;;;;;4953829;29;20494;-60
2021/09/14 09:46:22;;;;;;;6.47;6.07;;;23.40;40.50;;;;;;4953805;29;20440;-60
2021/09/14 09:48:48;;;;;;;6.83;6.33;;;23.40;40.50;;;;;;4954203;29;20574;-60
2021/09/14 09:51:15;;;;;;;5.63;5.33;;;23.50;40.50;;;;;;4953524;28;20431;-60
2021/09/14 09:53:41;;;;;;;6.20;5.80;;;23.50;40.40;;;;;;4953666;29;20514;-61
2021/09/14 09:56:07;;;;;;;6.90;6.40;;;23.50;40.50;;;;;;4953719;29;20502;-60
2021/09/14 09:58:33;;;;;;;6.80;6.20;;;23.50;40.50;;;;;;4953084;29;20538;-60
2021/09/14 10:01:09;;;;;;;7.00;6.50;;;23.50;40.50;;;;;;4953162;28;20489;-61
2021/09/14 10:03:43;;;;;;;6.57;6.13;;;23.60;40.60;;;;;;4952101;29;20993;-60
2021/09/14 10:06:09;;;;;;;7.30;6.20;;;23.60;40.50;;;;;;4953406;29;20482;-60
2021/09/14 10:08:35;;;;;;;6.00;5.60;;;23.60;40.40;;;;;;4953386;29;20986;-61
2021/09/14 10:11:01;;;;;;;6.50;6.10;;;23.60;40.50;;;;;;4953507;28;20466;-61
2021/09/14 10:13:35;;;;;;;6.47;5.97;;;23.60;40.60;;;;;;4954052;29;20451;-62
2021/09/14 10:16:01;;;;;;;6.60;6.20;;;23.70;40.50;;;;;;4955268;29;20180;-61
2021/09/14 10:18:29;;;;;;;7.60;6.80;;;23.70;40.50;;;;;;4955106;29;20466;-61
2021/09/14 10:20:54;;;;;;;7.33;6.73;;;23.70;40.40;;;;;;4955256;28;20442;-61
2021/09/14 10:23:22;;;;;;;7.20;6.70;;;23.70;40.50;;;;;;4955221;29;20469;-62
2021/09/14 10:26:00;;;;;;;5.87;5.47;;;23.80;40.50;;;;;;4955046;29;20308;-61
2021/09/14 10:28:26;;;;;;;6.07;5.57;;;23.80;40.50;;;;;;4954963;29;20398;-61
2021/09/14 10:30:51;;;;;;;6.63;5.97;;;23.80;40.40;;;;;;4954790;28;20790;-61
2021/09/14 10:33:22;;;;;;;6.53;6.03;;;23.80;40.30;;;;;;4955087;29;20654;-61
2021/09/14 10:35:48;;;;;;;6.97;6.30;;;23.80;40.30;;;;;;4955089;29;20183;-61
2021/09/14 10:38:16;;;;;;;5.97;5.57;;;23.90;40.40;;;;;;4954844;29;20791;-60
2021/09/14 10:40:50;;;;;;;6.50;6.10;;;23.90;40.30;;;;;;4954441;28;20179;-62
2021/09/14 10:43:30;;;;;;;6.37;5.97;;;23.90;40.30;;;;;;4953776;29;20454;-57
2021/09/14 10:45:59;;;;;;;7.30;6.70;;;23.90;40.30;;;;;;4954790;29;20451;-61
2021/09/14 10:48:29;;;;;;;6.30;5.83;;;23.90;40.20;;;;;;4954088;29;20435;-60
2021/09/14 10:51:07;;;;;;;7.00;6.40;;;23.90;40.20;;;;;;4954327;29;20423;-61
2021/09/14 10:53:32;;;;;;;7.17;6.60;;;23.90;40.10;;;;;;4954467;29;20418;-61
2021/09/14 10:55:59;;;;;;;7.50;6.90;;;23.90;40.10;;;;;;4954629;29;20465;-61
2021/09/14 10:58:27;;;;;;;5.97;5.57;;;23.90;40.10;;;;;;4954277;28;20186;-62
2021/09/14 11:00:53;;;;;;;6.70;6.20;;;23.90;40.20;;;;;;4954335;28;20469;-61
2021/09/14 11:03:19;;;;;;;6.83;6.23;;;23.90;40.00;;;;;;4954009;28;20454;-62
2021/09/14 11:05:53;;;;;;;6.13;5.73;;;23.90;40.00;;;;;;4954318;28;20415;-62
2021/09/14 11:08:24;;;;;;;7.03;6.53;;;23.90;40.00;;;;;;4954333;28;20490;-62
2021/09/14 11:10:51;;;;;;;5.77;5.47;;;23.90;40.00;;;;;;4954099;28;20956;-62
2021/09/14 11:13:22;;;;;;;6.17;5.87;;;23.90;40.00;;;;;;4952891;28;20427;-62
2021/09/14 11:16:02;;;;;;;6.83;6.33;;;23.90;39.90;;;;;;4953823;28;20926;-62
2021/09/14 11:18:30;;;;;;;7.40;6.80;;;23.90;40.10;;;;;;4954300;28;20425;-62
2021/09/14 11:21:04;;;;;;;7.33;6.83;;;23.90;40.10;;;;;;4954246;28;20902;-62
2021/09/14 11:23:30;;;;;;;6.60;6.20;;;23.90;40.20;;;;;;4954162;28;20458;-62
2021/09/14 11:25:56;;;;;;;7.23;6.73;;;23.90;40.20;;;;;;4953850;28;20506;-62
2021/09/14 11:28:22;;;;;;;6.47;6.07;;;23.90;40.10;;;;;;4954250;28;20698;-62
2021/09/14 11:31:00;;;;;;;6.43;6.03;;;23.90;40.10;;;;;;4953985;28;20848;-62
2021/09/14 11:33:27;;;;;;;6.03;5.53;;;23.90;40.10;;;;;;4954285;28;20841;-62
2021/09/14 11:35:55;;;;;;;6.90;6.40;;;23.90;40.10;;;;;;4953569;28;20900;-62
2021/09/14 11:38:22;;;;;;;6.80;6.33;;;23.90;40.10;;;;;;4953900;29;20414;-62
2021/09/14 11:40:59;;;;;;;7.00;6.50;;;23.90;40.20;;;;;;4953789;28;20419;-62
2021/09/14 11:43:27;;;;;;;6.90;6.30;;;23.90;40.20;;;;;;4953708;29;20509;-62
2021/09/14 11:45:53;;;;;;;6.77;6.13;;;23.90;40.20;;;;;;4953943;29;20415;-62
2021/09/14 11:48:25;;;;;;;7.47;6.97;;;23.90;40.10;;;;;;4953421;29;20781;-62
2021/09/14 11:51:05;;;;;;;7.30;6.80;;;23.90;40.20;;;;;;4953722;28;20969;-62
2021/09/14 11:53:31;;;;;;;7.07;6.47;;;23.80;40.20;;;;;;4953062;29;20898;-62
2021/09/14 11:55:57;;;;;;;7.50;6.43;;;23.90;40.20;;;;;;4953803;29;20418;-62
2021/09/14 11:58:35;;;;;;;6.53;6.13;;;23.80;40.00;;;;;;4953093;29;20411;-62
2021/09/14 12:01:07;;;;;;;6.70;6.20;;;23.90;40.10;;;;;;4953459;28;20864;-62
2021/09/14 12:03:37;;;;;;;7.90;7.20;;;23.80;40.10;;;;;;4953346;28;20455;-62
2021/09/14 12:06:04;;;;;;;6.43;6.03;;;23.90;40.30;;;;;;4953431;29;20407;-62
2021/09/14 12:08:32;;;;;;;6.10;5.70;;;23.80;40.20;;;;;;4953115;29;20418;-62
2021/09/14 12:10:58;;;;;;;7.70;7.20;;;23.80;40.10;;;;;;4953640;28;20538;-62
2021/09/14 12:13:24;;;;;;;7.43;6.80;;;23.90;40.20;;;;;;4953500;29;20411;-62
2021/09/14 12:15:56;;;;;;;7.67;7.03;;;23.80;40.20;;;;;;4953596;29;20411;-62
2021/09/14 12:18:22;;;;;;;6.97;6.47;;;23.80;40.20;;;;;;4953414;28;20422;-60
2021/09/14 12:20:47;;;;;;;7.77;7.17;;;23.80;40.40;;;;;;4953239;28;20462;-60
2021/09/14 12:23:14;;;;;;;6.70;6.30;;;23.80;40.30;;;;;;4953307;29;20203;-61
2021/09/14 12:25:40;;;;;;;7.03;6.53;;;23.80;40.20;;;;;;4953463;29;20237;-61
2021/09/14 12:28:06;;;;;;;7.23;6.70;;;23.80;40.20;;;;;;4953466;29;20501;-62
2021/09/14 12:30:32;;;;;;;6.70;6.20;;;23.80;40.30;;;;;;4953129;29;20230;-62
2021/09/14 12:32:58;;;;;;;6.70;6.23;;;23.80;40.30;;;;;;4953336;29;20172;-61
2021/09/14 12:35:24;;;;;;;7.00;6.50;;;23.80;40.20;;;;;;4953496;29;20411;-61
2021/09/14 12:37:50;;;;;;;6.57;6.17;;;23.80;40.50;;;;;;4953475;28;20179;-61
2021/09/14 12:40:15;;;;;;;6.57;6.10;;;23.80;40.50;;;;;;4953213;28;20419;-61
2021/09/14 12:42:41;;;;;;;6.80;6.40;;;23.80;40.40;;;;;;4953088;29;20666;-60
2021/09/14 12:45:07;;;;;;;7.37;6.77;;;23.80;40.40;;;;;;4948307;29;20187;-64
2021/09/14 12:47:32;;;;;;;6.83;6.33;;;23.80;40.30;;;;;;4947253;28;20182;-61
2021/09/14 12:49:58;;;;;;;6.83;6.33;;;23.80;40.40;;;;;;4965854;28;20510;-63
2021/09/14 12:52:25;;;;;;;7.80;7.20;;;23.80;40.50;;;;;;4951008;28;20659;-61
2021/09/14 12:54:50;;;;;;;6.10;5.70;;;23.80;40.40;;;;;;4950950;28;20179;-62
2021/09/14 12:57:16;;;;;;;6.00;5.50;;;23.80;40.30;;;;;;4950914;29;20423;-61
2021/09/14 12:59:41;;;;;;;6.90;6.40;;;23.80;40.40;;;;;;4950687;29;20538;-62
2021/09/14 13:02:08;;;;;;;6.60;6.20;;;23.80;40.40;;;;;;4950925;28;20254;-61
2021/09/14 13:04:34;;;;;;;6.87;6.47;;;23.80;40.30;;;;;;4950692;28;20219;-61
2021/09/14 13:06:59;;;;;;;8.10;6.50;;;23.80;40.30;;;;;;4954660;28;20489;-59
2021/09/14 13:09:25;;;;;;;6.60;6.00;;;23.80;40.40;;;;;;4954181;29;20176;-60
2021/09/14 13:11:50;;;;;;;6.23;5.83;;;23.80;40.30;;;;;;4954592;28;20282;-60
2021/09/14 13:17:00;;;;;;;7.43;6.83;;;23.80;40.30;;;;;;4954715;29;20182;-61
2021/09/14 13:19:25;;;;;;;6.23;5.77;;;23.80;40.50;;;;;;4954170;29;20415;-61
2021/09/14 13:21:52;;;;;;;5.97;5.60;;;23.80;40.40;;;;;;4954384;28;20191;-61
2021/09/14 13:24:17;;;;;;;7.50;6.90;;;23.80;40.40;;;;;;4954005;28;20215;-62
2021/09/14 13:26:43;;;;;;;6.53;6.03;;;23.80;40.50;;;;;;4954403;29;20925;-61
2021/09/14 13:29:08;;;;;;;7.17;6.67;;;23.80;40.40;;;;;;4953052;29;20226;-61
2021/09/14 13:31:34;;;;;;;6.47;5.97;;;23.80;40.40;;;;;;4953555;28;20194;-60
2021/09/14 13:33:59;;;;;;;6.67;6.27;;;23.80;40.50;;;;;;4954493;28;20673;-61
2021/09/14 13:36:25;;;;;;;7.47;6.87;;;23.80;40.50;;;;;;4954153;29;20187;-62
2021/09/14 13:38:51;;;;;;;7.37;6.77;;;23.80;40.60;;;;;;4953670;29;20176;-61